Flight Track Log - Related Links

Times and Time Zones

All times are in EDT time to prevent confusion due to time zone crossing. See the EGF4393 flight status page for this flight to view local times or setup timezone preferences in your user account.

Time Position Orientation Groundspeed Altitude Reporting Facility
EDT Latitude Longitude Course Direction KTS MPH feet Rate Location/Type
Wed 03:38:55 PM 42.0167 -87.9500 352° North 171 197 2,400  Level Chicago TRACON
Wed 03:39:55 PM 42.0667 -88.0000 323° Northwest 228 262 4,600 2,153 Climbing Chicago TRACON
Wed 03:41:06 PM 42.1317 -88.0092 354° North 242 278 7,100 2,256 Climbing Chicago Center
Wed 03:42:00 PM 42.3231 -88.0099 350° North  Level FlightAware Approximate
Wed 03:42:08 PM 42.2022 -88.0042 North 252 290 9,600  Level Chicago Center
Wed 03:43:00 PM 42.4105 -88.0469 340° North  Level FlightAware Approximate
Wed 03:43:09 PM 42.2789 -87.9972 North 274 315 11,800  Level Chicago Center
Wed 03:44:00 PM 42.4952 -88.0657 352° North  Level FlightAware Approximate
Wed 03:44:11 PM 42.3664 -87.9886 North 285 328 14,000  Level Chicago Center
Wed 03:45:13 PM 42.4453 -88.0108 348° North 295 339 15,800 1,452 Climbing Chicago Center
Wed 03:46:15 PM 42.5264 -88.0519 340° North 313 360 17,000 1,016 Climbing Chicago Center
Wed 03:47:17 PM 42.6169 -88.0878 344° North 335 386 17,900 1,016 Climbing Chicago Center
Wed 03:48:19 PM 42.7289 -88.1317 344° North 355 409 19,100 1,113 Climbing Chicago Center
Wed 03:49:21 PM 42.8294 -88.1689 345° North 370 426 20,200 1,016 Climbing Chicago Center
Wed 03:50:23 PM 42.9317 -88.2092 344° North 378 435 21,200 871 Climbing Chicago Center
Wed 03:51:25 PM 43.0436 -88.2086 360° North 398 458 22,000 387 Climbing Chicago Center
Wed 03:52:27 PM 43.1594 -88.2108 359° North 412 474 22,000  Level Chicago Center
Wed 03:53:29 PM 43.2728 -88.2594 343° North 426 490 22,000  Level Chicago Center
Wed 03:54:31 PM 43.3997 -88.3192 341° North 419 482 22,000  Level Chicago Center
Wed 03:55:33 PM 43.5075 -88.3694 341° North 418 481 22,000  Level Chicago Center
Wed 03:56:35 PM 43.6167 -88.4192 342° North 420 483 22,000 -361 Level Chicago Center
Wed 03:56:56 PM 43.6711 -88.4447 341° North 419 482 21,500 -1,880 Descending Minneapolis Center
Wed 03:57:58 PM 43.7794 -88.4950 341° North 415 478 19,400 -2,032 Descending Minneapolis Center
Wed 03:59:00 PM 43.8822 -88.5425 342° North 398 458 17,300 -2,177 Descending Minneapolis Center
Wed 04:00:02 PM 43.9822 -88.5892 341° North 385 443 14,900 -1,597 Descending Minneapolis Center
Wed 04:01:04 PM 44.0769 -88.6336 341° North 369 425 14,000 -532 Descending Minneapolis Center
Wed 04:02:06 PM 44.1706 -88.6769 342° North 357 411 13,800 -634 Descending Minneapolis Center
Wed 04:03:07 PM 44.2786 -88.7308 340° North 353 406 12,700 -1,024 Descending Minneapolis Center
Wed 04:04:09 PM 44.3708 -88.7739 342° North 351 404 11,700 -968 Descending Minneapolis Center
Wed 04:05:11 PM 44.4594 -88.8153 342° North 338 389 10,700 -968 Descending Minneapolis Center
Wed 04:06:13 PM 44.5311 -88.8503 341° North 283 326 9,700 -1,306 Descending Minneapolis Center
Wed 04:07:15 PM 44.5706 -88.9189 309° West 246 283 8,000 -976 Descending Minneapolis Center
Wed 04:08:16 PM 44.5933 -89.0092 290° West 247 284 7,700 -1,220 Descending Minneapolis Center
Wed 04:09:18 PM 44.6203 -89.1067 291° West 240 276 5,500 -1,676 Descending Minneapolis Center
Wed 04:10:32 PM 44.6453 -89.1933 292° West 232 267 3,900 -1,059 Descending Minneapolis Center
Wed 04:11:34 PM 44.6753 -89.2989 292° West 227 261 3,100 -435 Descending Minneapolis Center
Wed 04:12:36 PM 44.6978 -89.3772 292° West 226 260 3,000 -97 Descending Minneapolis Center

Login

Don't have an account? Register now (free) for customized features, flight alerts, and more!